createdAt,value
2023-01-12T00:00:06.066Z,26.93
2023-01-12T00:02:34.169Z,29.97
2023-01-12T00:05:01.178Z,26.33
2023-01-12T00:07:28.949Z,33.57
2023-01-12T00:09:55.783Z,29.40
2023-01-12T00:12:22.630Z,31.50
2023-01-12T00:14:49.514Z,27.90
2023-01-12T00:17:17.689Z,28.17
2023-01-12T00:19:44.775Z,28.07
2023-01-12T00:22:12.775Z,27.77
2023-01-12T00:24:39.668Z,30.07
2023-01-12T00:27:09.639Z,26.73
2023-01-12T00:29:37.368Z,22.13
2023-01-12T00:32:05.996Z,27.80
2023-01-12T00:34:33.293Z,37.10
2023-01-12T00:37:01.276Z,26.27
2023-01-12T00:39:28.393Z,29.37
2023-01-12T00:42:13.986Z,27.50
2023-01-12T00:44:59.333Z,27.27
2023-01-12T00:47:26.499Z,30.60
2023-01-12T00:49:53.438Z,29.67
2023-01-12T00:52:30.450Z,25.63
2023-01-12T00:54:59.612Z,26.73
2023-01-12T00:57:28.558Z,24.87
2023-01-12T00:59:58.146Z,24.53
2023-01-12T01:02:28.288Z,26.67
2023-01-12T01:04:55.730Z,22.67
2023-01-12T01:07:22.972Z,25.13
2023-01-12T01:09:50.684Z,25.73
2023-01-12T01:12:18.043Z,22.70
2023-01-12T01:14:45.011Z,22.90
2023-01-12T01:17:12.045Z,23.57
2023-01-12T01:19:38.871Z,23.40
2023-01-12T01:22:05.643Z,25.27
2023-01-12T01:24:33.515Z,27.27
2023-01-12T01:27:00.452Z,24.37
2023-01-12T01:29:27.467Z,23.90
2023-01-12T01:31:57.451Z,21.03
2023-01-12T01:34:24.547Z,24.80
2023-01-12T01:36:52.475Z,22.40
2023-01-12T01:39:19.369Z,21.13
2023-01-12T01:41:48.105Z,23.93
2023-01-12T01:44:30.205Z,22.77
2023-01-12T01:47:08.024Z,24.83
2023-01-12T01:49:41.796Z,22.57
2023-01-12T01:52:37.082Z,24.87
2023-01-12T01:55:11.239Z,24.07
2023-01-12T01:57:54.900Z,25.30
2023-01-12T02:00:23.243Z,19.83
2023-01-12T02:02:50.610Z,26.17
2023-01-12T02:05:20.802Z,24.27
2023-01-12T02:07:49.448Z,22.37
2023-01-12T02:10:16.904Z,25.00
2023-01-12T02:13:04.092Z,25.83
2023-01-12T02:15:57.159Z,21.33
2023-01-12T02:18:43.947Z,26.13
2023-01-12T02:21:47.829Z,25.10
2023-01-12T02:24:27.825Z,22.57
2023-01-12T02:27:14.876Z,20.80
2023-01-12T02:29:55.700Z,24.40
2023-01-12T02:32:28.548Z,21.57
2023-01-12T02:35:12.723Z,19.97
2023-01-12T02:37:49.710Z,20.80
2023-01-12T02:40:30.057Z,23.20
2023-01-12T02:43:19.988Z,20.87
2023-01-12T02:46:05.448Z,19.00
2023-01-12T02:48:54.648Z,18.57
2023-01-12T02:51:32.146Z,19.50
2023-01-12T02:54:04.626Z,17.60
2023-01-12T02:57:01.246Z,18.17
2023-01-12T02:59:33.919Z,18.90
2023-01-12T03:02:06.967Z,17.60
2023-01-12T03:04:35.493Z,19.73
2023-01-12T03:07:02.574Z,17.23
2023-01-12T03:09:44.446Z,17.53
2023-01-12T03:12:16.060Z,17.20
2023-01-12T03:14:47.941Z,20.73
2023-01-12T03:17:32.021Z,23.97
2023-01-12T03:20:24.242Z,19.07
2023-01-12T03:22:55.634Z,20.40
2023-01-12T03:25:25.823Z,19.30
2023-01-12T03:27:57.959Z,23.07
2023-01-12T03:30:41.221Z,18.43
2023-01-12T03:33:09.684Z,18.67
2023-01-12T03:35:43.754Z,19.43
2023-01-12T03:38:29.641Z,17.70
2023-01-12T03:41:06.655Z,20.23
2023-01-12T03:43:41.801Z,21.00
2023-01-12T03:46:32.030Z,17.20
2023-01-12T03:49:07.468Z,19.37
2023-01-12T03:51:39.899Z,18.17
2023-01-12T03:54:10.349Z,20.90
2023-01-12T03:56:38.564Z,21.30
2023-01-12T03:59:05.780Z,22.37
2023-01-12T04:01:33.250Z,20.00
2023-01-12T04:04:00.404Z,25.17
2023-01-12T04:06:27.297Z,23.37
2023-01-12T04:08:54.575Z,22.57
2023-01-12T04:11:40.853Z,21.10
2023-01-12T04:14:07.727Z,19.77
2023-01-12T04:16:34.614Z,22.30
2023-01-12T04:19:01.732Z,25.37
2023-01-12T04:21:47.280Z,20.50
2023-01-12T04:24:14.222Z,20.20
2023-01-12T04:26:41.294Z,22.37
2023-01-12T04:29:08.195Z,26.60
2023-01-12T04:31:35.318Z,24.00
2023-01-12T04:34:02.402Z,25.20
2023-01-12T04:36:29.346Z,22.37
2023-01-12T04:38:56.133Z,20.10
2023-01-12T04:41:22.982Z,23.83
2023-01-12T04:43:49.905Z,27.77
2023-01-12T04:46:17.050Z,22.20
2023-01-12T04:48:44.330Z,21.23
2023-01-12T04:51:12.082Z,23.47
2023-01-12T04:53:39.264Z,19.70
2023-01-12T04:56:07.427Z,21.40
2023-01-12T04:58:35.227Z,21.83
2023-01-12T05:01:29.114Z,19.83
2023-01-12T05:03:58.182Z,24.80
2023-01-12T05:06:25.248Z,24.70
2023-01-12T05:09:11.163Z,20.63
2023-01-12T05:11:38.098Z,20.97
2023-01-12T05:14:05.953Z,24.87
2023-01-12T05:16:33.053Z,20.23
2023-01-12T05:19:00.158Z,22.10
2023-01-12T05:21:27.080Z,21.47
2023-01-12T05:23:54.136Z,25.33
2023-01-12T05:26:21.276Z,20.57
2023-01-12T05:28:49.980Z,23.73
2023-01-12T05:31:17.097Z,23.00
2023-01-12T05:33:44.059Z,26.70
2023-01-12T05:36:13.388Z,24.93
2023-01-12T05:38:41.141Z,29.10
2023-01-12T05:41:10.963Z,31.93
2023-01-12T05:43:50.289Z,21.93
2023-01-12T05:46:22.724Z,25.00
2023-01-12T05:48:50.631Z,27.37
2023-01-12T05:51:18.557Z,29.20
2023-01-12T05:53:45.748Z,27.87
2023-01-12T05:56:17.081Z,33.57
2023-01-12T05:58:48.578Z,25.73
2023-01-12T06:01:15.664Z,24.63
2023-01-12T06:03:42.673Z,28.83
2023-01-12T06:06:09.506Z,28.47
2023-01-12T06:08:36.318Z,28.77
2023-01-12T06:11:03.964Z,25.60
2023-01-12T06:13:49.248Z,27.70
2023-01-12T06:16:16.448Z,29.83
2023-01-12T06:18:43.409Z,24.60
2023-01-12T06:21:10.776Z,27.77
2023-01-12T06:23:37.717Z,28.07
2023-01-12T06:26:06.498Z,31.83
2023-01-12T06:28:37.883Z,28.43
2023-01-12T06:31:07.750Z,33.30
2023-01-12T06:33:35.004Z,30.10
2023-01-12T06:36:02.664Z,28.93
2023-01-12T06:38:32.675Z,26.77
2023-01-12T06:41:04.490Z,26.17
2023-01-12T06:43:31.848Z,29.80
2023-01-12T06:45:59.290Z,25.73
2023-01-12T06:48:27.422Z,26.57
2023-01-12T06:51:06.232Z,25.77
2023-01-12T06:53:33.292Z,26.07
2023-01-12T06:56:00.124Z,26.27
2023-01-12T06:58:27.153Z,28.10
2023-01-12T07:00:54.200Z,26.73
2023-01-12T07:03:22.204Z,23.93
2023-01-12T07:05:49.085Z,25.73
2023-01-12T07:08:19.183Z,26.43
2023-01-12T07:10:46.616Z,26.47
2023-01-12T07:13:13.484Z,28.43
2023-01-12T07:15:40.338Z,29.77
2023-01-12T07:18:07.514Z,28.07
2023-01-12T07:20:34.682Z,23.83
2023-01-12T07:23:01.575Z,24.10
2023-01-12T07:25:28.489Z,23.87
2023-01-12T07:27:57.433Z,27.87
2023-01-12T07:30:25.922Z,23.60
2023-01-12T07:32:53.047Z,25.67
2023-01-12T07:35:20.136Z,24.20
2023-01-12T07:37:48.973Z,25.17
2023-01-12T07:40:16.412Z,24.20
2023-01-12T07:42:43.708Z,26.03
2023-01-12T07:45:11.863Z,26.80
2023-01-12T07:47:40.039Z,26.03
2023-01-12T07:50:08.521Z,28.83
2023-01-12T07:52:35.362Z,28.00
2023-01-12T07:55:02.214Z,30.13
2023-01-12T07:57:29.489Z,34.77
2023-01-12T07:59:56.548Z,31.33
2023-01-12T08:02:23.454Z,36.00
2023-01-12T08:04:50.615Z,28.53
2023-01-12T08:07:17.388Z,27.43
2023-01-12T08:09:44.266Z,26.13
2023-01-12T08:12:11.130Z,28.70
2023-01-12T08:14:40.465Z,29.47
2023-01-12T08:17:15.352Z,25.43
2023-01-12T08:19:55.220Z,27.90
2023-01-12T08:22:28.338Z,22.70
2023-01-12T08:25:01.239Z,25.87
2023-01-12T08:27:31.273Z,24.40
2023-01-12T08:30:00.011Z,22.93
2023-01-12T08:32:30.095Z,23.83
2023-01-12T08:35:01.747Z,23.57
2023-01-12T08:37:31.174Z,23.83
2023-01-12T08:39:58.163Z,19.50
2023-01-12T08:42:28.058Z,23.10
2023-01-12T08:44:56.110Z,20.93
2023-01-12T08:47:27.451Z,23.13
2023-01-12T08:49:59.340Z,21.43
2023-01-12T08:52:29.602Z,21.37
2023-01-12T08:54:56.781Z,21.40
2023-01-12T08:57:23.655Z,22.70
2023-01-12T08:59:50.622Z,20.70
2023-01-12T09:02:18.052Z,20.80
2023-01-12T09:04:45.130Z,16.97
2023-01-12T09:07:12.918Z,18.40
2023-01-12T09:09:39.885Z,18.07
2023-01-12T09:12:07.422Z,14.50
2023-01-12T09:14:39.007Z,16.43
2023-01-12T09:17:07.870Z,14.07
2023-01-12T09:19:35.804Z,18.50
2023-01-12T09:22:02.641Z,14.07
2023-01-12T09:24:29.495Z,17.03
2023-01-12T09:26:56.540Z,23.57
2023-01-12T09:29:23.551Z,13.93
2023-01-12T09:31:50.730Z,22.37
2023-01-12T09:34:17.833Z,14.63
2023-01-12T09:36:45.036Z,14.67
2023-01-12T09:39:26.850Z,18.70
2023-01-12T09:42:13.617Z,11.80
2023-01-12T09:45:02.935Z,14.67
2023-01-12T09:47:36.256Z,17.00
2023-01-12T09:50:09.950Z,12.00
2023-01-12T09:52:44.824Z,19.27
2023-01-12T09:55:21.636Z,16.27
2023-01-12T09:58:17.538Z,14.03
2023-01-12T10:00:48.978Z,12.63
2023-01-12T10:03:38.497Z,12.87
2023-01-12T10:06:06.864Z,11.90
2023-01-12T10:08:39.968Z,11.30
2023-01-12T10:11:44.367Z,11.83
2023-01-12T10:14:36.485Z,9.37
2023-01-12T10:17:27.709Z,12.47
2023-01-12T10:20:08.139Z,9.80
2023-01-12T10:22:43.633Z,13.87
2023-01-12T10:25:17.920Z,9.13
2023-01-12T10:27:47.381Z,6.83
2023-01-12T10:30:19.266Z,13.87
2023-01-12T10:32:46.448Z,9.27
2023-01-12T10:35:16.657Z,11.13
2023-01-12T10:37:49.796Z,9.30
2023-01-12T10:40:35.175Z,12.70
2023-01-12T10:43:20.685Z,11.73
2023-01-12T10:46:17.024Z,13.53
2023-01-12T10:48:49.537Z,15.10
2023-01-12T10:51:24.378Z,16.50
2023-01-12T10:54:00.485Z,11.40
2023-01-12T10:56:35.767Z,10.07
2023-01-12T10:59:21.463Z,15.10
2023-01-12T11:02:09.563Z,12.03
2023-01-12T11:04:41.453Z,9.27
2023-01-12T11:07:27.024Z,11.83
2023-01-12T11:09:55.537Z,10.90
2023-01-12T11:12:34.831Z,9.77
2023-01-12T11:15:03.375Z,10.37
2023-01-12T11:17:49.781Z,12.20
2023-01-12T11:20:25.824Z,10.20
2023-01-12T11:22:56.388Z,12.20
2023-01-12T11:25:27.824Z,10.57
2023-01-12T11:28:24.103Z,8.90
2023-01-12T11:31:17.306Z,12.60
2023-01-12T11:33:52.649Z,12.90
2023-01-12T11:36:34.404Z,12.33
2023-01-12T11:39:08.401Z,12.90
2023-01-12T11:41:41.335Z,10.73
2023-01-12T11:44:17.759Z,11.97
2023-01-12T11:47:05.866Z,14.07
2023-01-12T11:49:39.655Z,18.57
2023-01-12T11:52:10.773Z,10.57
2023-01-12T11:54:39.268Z,13.13
2023-01-12T11:57:42.982Z,16.07
2023-01-12T12:00:54.691Z,12.27
2023-01-12T12:03:33.619Z,14.23
2023-01-12T12:06:18.269Z,15.27
2023-01-12T12:09:29.906Z,12.17
2023-01-12T12:12:14.640Z,9.13
2023-01-12T12:14:57.119Z,11.93
2023-01-12T12:17:33.030Z,11.67
2023-01-12T12:20:22.630Z,10.73
2023-01-12T12:23:16.643Z,12.60
2023-01-12T12:26:07.863Z,15.00
2023-01-12T12:28:57.161Z,9.17
2023-01-12T12:31:42.789Z,9.40
2023-01-12T12:34:55.237Z,7.73
2023-01-12T12:37:43.070Z,7.63
2023-01-12T12:40:52.590Z,8.30
2023-01-12T12:43:49.621Z,10.73
2023-01-12T12:46:54.258Z,7.23
2023-01-12T12:49:28.074Z,9.47
2023-01-12T12:51:57.971Z,7.47
2023-01-12T12:54:26.134Z,6.67
2023-01-12T12:56:53.331Z,7.67
2023-01-12T12:59:54.410Z,5.93
2023-01-12T13:02:52.375Z,9.10
2023-01-12T13:05:42.770Z,11.40
2023-01-12T13:08:25.649Z,6.60
2023-01-12T13:10:57.723Z,9.70
2023-01-12T13:13:28.626Z,5.90
2023-01-12T13:16:21.841Z,7.50
2023-01-12T13:18:51.392Z,7.63
2023-01-12T13:21:29.135Z,7.30
2023-01-12T13:24:11.728Z,6.87
2023-01-12T13:26:45.261Z,10.67
2023-01-12T13:29:27.034Z,6.87
2023-01-12T13:32:28.959Z,13.67
2023-01-12T13:34:55.849Z,5.90
2023-01-12T13:37:57.968Z,8.17
2023-01-12T13:40:30.679Z,7.20
2023-01-12T13:43:15.552Z,6.87
2023-01-12T13:46:03.703Z,9.00
2023-01-12T13:48:34.511Z,11.13
2023-01-12T13:51:39.062Z,6.47
2023-01-12T13:54:15.692Z,12.30
2023-01-12T13:56:43.461Z,9.67
2023-01-12T13:59:19.454Z,11.67
2023-01-12T14:01:48.822Z,13.37
2023-01-12T14:04:19.389Z,11.67
2023-01-12T14:07:20.725Z,6.10
2023-01-12T14:10:26.202Z,7.87
2023-01-12T14:13:14.448Z,8.27
2023-01-12T14:16:01.703Z,7.97
2023-01-12T14:18:41.097Z,13.50
2023-01-12T14:21:26.719Z,8.33
2023-01-12T14:24:08.395Z,13.30
2023-01-12T14:26:35.884Z,7.93
2023-01-12T14:29:02.962Z,8.23
2023-01-12T14:31:40.152Z,10.37
2023-01-12T14:34:20.950Z,12.13
2023-01-12T14:36:49.059Z,8.87
2023-01-12T14:39:20.419Z,9.70
2023-01-12T14:42:12.768Z,10.30
2023-01-12T14:45:15.784Z,9.43
2023-01-12T14:47:42.746Z,11.23
2023-01-12T14:50:16.523Z,9.67
2023-01-12T14:52:45.841Z,14.13
2023-01-12T14:55:24.753Z,12.27
2023-01-12T14:57:58.789Z,12.17
2023-01-12T15:00:29.414Z,24.70
2023-01-12T15:02:58.585Z,34.33
2023-01-12T15:05:30.767Z,17.93
2023-01-12T15:08:01.770Z,15.40
2023-01-12T15:10:40.966Z,18.40
2023-01-12T15:13:28.220Z,13.20
2023-01-12T15:16:15.888Z,17.07
2023-01-12T15:19:01.346Z,13.07
2023-01-12T15:22:08.311Z,13.90
2023-01-12T15:24:54.995Z,14.40
2023-01-12T15:27:23.576Z,11.97
2023-01-12T15:29:50.483Z,11.23
2023-01-12T15:32:46.365Z,14.57
2023-01-12T15:35:17.681Z,11.13
2023-01-12T15:37:44.583Z,10.17
2023-01-12T15:40:15.006Z,11.43
2023-01-12T15:42:42.332Z,13.47
2023-01-12T15:45:24.551Z,12.50
2023-01-12T15:47:51.483Z,15.23
2023-01-12T15:50:18.389Z,17.53
2023-01-12T15:52:45.333Z,18.87
2023-01-12T15:55:18.743Z,20.97
2023-01-12T15:57:47.186Z,18.57
2023-01-12T16:00:16.370Z,15.40
2023-01-12T16:02:45.632Z,23.37
2023-01-12T16:05:13.461Z,21.10
2023-01-12T16:07:40.408Z,18.90
2023-01-12T16:10:08.104Z,18.50
2023-01-12T16:12:34.951Z,19.47
2023-01-12T16:15:01.720Z,18.60
2023-01-12T16:17:28.536Z,21.93
2023-01-12T16:19:55.327Z,18.50
2023-01-12T16:22:26.418Z,18.83
2023-01-12T16:24:55.278Z,22.57
2023-01-12T16:27:24.943Z,22.90
2023-01-12T16:29:52.005Z,15.90
2023-01-12T16:32:22.167Z,18.43
2023-01-12T16:34:48.944Z,22.40
2023-01-12T16:37:16.827Z,19.60
2023-01-12T16:39:43.649Z,19.27
2023-01-12T16:42:10.865Z,20.83
2023-01-12T16:44:39.289Z,18.80
2023-01-12T16:47:15.750Z,19.60
2023-01-12T16:49:43.547Z,23.63
2023-01-12T16:52:15.235Z,25.03
2023-01-12T16:54:42.843Z,22.37
2023-01-12T16:57:11.660Z,23.60
2023-01-12T16:59:39.208Z,16.63
2023-01-12T17:02:08.452Z,21.97
2023-01-12T17:04:37.679Z,17.37
2023-01-12T17:07:06.385Z,19.40
2023-01-12T17:09:38.104Z,22.57
2023-01-12T17:12:05.871Z,21.20
2023-01-12T17:14:34.679Z,19.77
2023-01-12T17:17:07.470Z,18.50
2023-01-12T17:19:36.320Z,22.30
2023-01-12T17:22:05.008Z,22.23
2023-01-12T17:24:33.879Z,22.33
2023-01-12T17:27:01.307Z,26.10
2023-01-12T17:29:28.995Z,20.93
2023-01-12T17:32:04.081Z,23.30
2023-01-12T17:34:38.469Z,20.83
2023-01-12T17:37:08.499Z,22.50
2023-01-12T17:39:39.799Z,22.17
2023-01-12T17:42:25.541Z,19.03
2023-01-12T17:44:52.423Z,18.93
2023-01-12T17:47:19.239Z,21.03
2023-01-12T17:49:47.891Z,17.83
2023-01-12T17:52:15.056Z,20.03
2023-01-12T17:54:41.856Z,19.00
2023-01-12T17:57:09.108Z,22.07
2023-01-12T17:59:36.062Z,24.80
2023-01-12T18:02:03.540Z,21.53
2023-01-12T18:04:31.401Z,19.53
2023-01-12T18:06:58.206Z,25.43
2023-01-12T18:09:27.876Z,24.30
2023-01-12T18:11:54.680Z,22.60
2023-01-12T18:14:24.368Z,23.10
2023-01-12T18:16:51.165Z,20.70
2023-01-12T18:19:18.073Z,17.00
2023-01-12T18:21:44.856Z,18.30
2023-01-12T18:24:11.684Z,20.27
2023-01-12T18:26:38.510Z,19.80
2023-01-12T18:29:06.365Z,27.43
2023-01-12T18:31:37.840Z,21.00
2023-01-12T18:34:06.110Z,16.83
2023-01-12T18:36:35.280Z,20.27
2023-01-12T18:39:03.738Z,20.37
2023-01-12T18:41:49.168Z,16.20
2023-01-12T18:44:16.361Z,15.33
2023-01-12T18:47:03.143Z,15.50
2023-01-12T18:49:33.646Z,21.20
2023-01-12T18:52:20.146Z,22.27
2023-01-12T18:54:48.277Z,21.20
2023-01-12T18:57:19.130Z,13.40
2023-01-12T19:00:00.119Z,21.47
2023-01-12T19:02:27.307Z,18.70
2023-01-12T19:05:12.489Z,20.17
2023-01-12T19:07:57.666Z,17.37
2023-01-12T19:10:25.711Z,17.33
2023-01-12T19:13:12.548Z,18.30
2023-01-12T19:15:59.488Z,19.67
2023-01-12T19:18:27.207Z,19.17
2023-01-12T19:21:14.006Z,18.43
2023-01-12T19:23:59.741Z,14.97
2023-01-12T19:26:45.213Z,15.87
2023-01-12T19:29:11.984Z,17.63
2023-01-12T19:31:38.798Z,20.37
2023-01-12T19:34:05.679Z,14.27
2023-01-12T19:36:32.469Z,13.57
2023-01-12T19:39:01.857Z,14.43
2023-01-12T19:41:46.988Z,19.60
2023-01-12T19:44:13.781Z,16.97
2023-01-12T19:46:40.779Z,14.50
2023-01-12T19:49:10.675Z,14.40
2023-01-12T19:51:38.924Z,17.67
2023-01-12T19:54:05.821Z,18.30
2023-01-12T19:56:32.615Z,17.77
2023-01-12T19:58:59.685Z,14.73
2023-01-12T20:01:28.543Z,15.77
2023-01-12T20:03:55.460Z,16.20
2023-01-12T20:06:22.277Z,14.03
2023-01-12T20:08:49.051Z,13.17
2023-01-12T20:11:16.343Z,19.13
2023-01-12T20:13:43.265Z,15.27
2023-01-12T20:16:11.205Z,14.30
2023-01-12T20:18:38.279Z,13.13
2023-01-12T20:21:09.362Z,15.83
2023-01-12T20:23:36.783Z,13.37
2023-01-12T20:26:08.564Z,16.30
2023-01-12T20:28:35.891Z,13.60
2023-01-12T20:31:09.296Z,15.80
2023-01-12T20:33:36.109Z,15.97
2023-01-12T20:36:02.948Z,13.47
2023-01-12T20:38:29.878Z,16.03
2023-01-12T20:40:56.940Z,14.87
2023-01-12T20:43:23.749Z,14.37
2023-01-12T20:45:52.453Z,13.13
2023-01-12T20:48:19.245Z,13.17
2023-01-12T20:50:46.181Z,13.33
2023-01-12T20:53:13.665Z,14.13
2023-01-12T20:55:49.839Z,13.63
2023-01-12T20:58:17.020Z,16.03
2023-01-12T21:00:44.739Z,15.17
2023-01-12T21:03:11.669Z,16.33
2023-01-12T21:05:43.326Z,10.67
2023-01-12T21:08:10.722Z,11.80
2023-01-12T21:10:39.206Z,15.43
2023-01-12T21:13:06.834Z,19.47
2023-01-12T21:15:33.842Z,14.60
2023-01-12T21:18:00.653Z,13.87
2023-01-12T21:20:27.503Z,21.00
2023-01-12T21:22:54.301Z,13.23
2023-01-12T21:25:21.134Z,15.17
2023-01-12T21:27:47.935Z,15.20
2023-01-12T21:30:14.814Z,17.80
2023-01-12T21:32:43.481Z,15.73
2023-01-12T21:35:10.270Z,17.80
2023-01-12T21:37:37.091Z,20.30
2023-01-12T21:40:04.379Z,15.00
2023-01-12T21:42:49.847Z,19.50
2023-01-12T21:45:16.718Z,19.77
2023-01-12T21:47:46.304Z,23.40
2023-01-12T21:50:13.487Z,17.13
2023-01-12T21:52:41.559Z,10.90
2023-01-12T21:55:13.491Z,13.13
2023-01-12T21:57:41.854Z,16.13
2023-01-12T22:00:10.339Z,12.43
2023-01-12T22:02:37.165Z,17.97
2023-01-12T22:05:04.278Z,15.33
2023-01-12T22:07:31.089Z,12.93
2023-01-12T22:10:17.936Z,17.70
2023-01-12T22:13:05.881Z,15.17
2023-01-12T22:15:34.318Z,14.43
2023-01-12T22:18:01.182Z,16.00
2023-01-12T22:20:28.090Z,14.73
2023-01-12T22:22:54.998Z,17.37
2023-01-12T22:25:22.075Z,15.97
2023-01-12T22:27:48.893Z,18.67
2023-01-12T22:30:22.576Z,15.40
2023-01-12T22:32:53.559Z,17.43
2023-01-12T22:35:20.416Z,16.90
2023-01-12T22:37:47.328Z,15.67
2023-01-12T22:40:15.963Z,14.10
2023-01-12T22:43:01.456Z,17.33
2023-01-12T22:45:28.496Z,15.80
2023-01-12T22:47:56.558Z,17.40
2023-01-12T22:50:23.901Z,19.53
2023-01-12T22:52:52.732Z,14.87
2023-01-12T22:55:20.706Z,15.73
2023-01-12T22:57:47.751Z,13.93
2023-01-12T23:00:19.227Z,15.90
2023-01-12T23:03:02.007Z,13.97
2023-01-12T23:05:36.260Z,14.67
2023-01-12T23:08:05.909Z,17.93
2023-01-12T23:10:33.246Z,13.97
2023-01-12T23:13:15.749Z,16.87
2023-01-12T23:15:56.636Z,16.50
2023-01-12T23:18:30.026Z,17.17
2023-01-12T23:21:11.252Z,12.37
2023-01-12T23:23:40.336Z,14.47
2023-01-12T23:26:09.449Z,16.67
2023-01-12T23:28:38.979Z,17.57
2023-01-12T23:31:08.728Z,15.57
2023-01-12T23:33:36.978Z,15.77
2023-01-12T23:36:09.903Z,17.60
2023-01-12T23:38:37.093Z,14.73
2023-01-12T23:41:14.816Z,16.13
2023-01-12T23:43:43.242Z,15.57
2023-01-12T23:46:12.416Z,14.03
2023-01-12T23:48:41.009Z,16.40
2023-01-12T23:51:08.013Z,16.43
2023-01-12T23:53:35.784Z,14.30
2023-01-12T23:56:14.902Z,13.87
2023-01-12T23:58:42.702Z,15.43
